Time;durP1;ratioP1;P1;durP2;ratioP2;P2;SDS_P1;SDS_P2;PMS_P1;PMS_P2;Temp;Humidity;BMP_temperature;BMP_pressure;BME280_temperature;BME280_humidity;BME280_pressure;Samples;Min_cycle;Max_cycle;Signal;HPM_P1;HPM_P2
2021/10/23 00:02:23;;;;;;;9.20;8.40;;;27.10;99.90;;;;;;5074917;28;20455;-69
2021/10/23 00:04:50;;;;;;;9.65;8.75;;;27.10;99.90;;;;;;5074895;28;20020;-69
2021/10/23 00:07:17;;;;;;;9.75;8.93;;;26.90;99.90;;;;;;5073596;28;20021;-69
2021/10/23 00:09:45;;;;;;;10.13;9.13;;;26.90;99.90;;;;;;5075036;28;20017;-69
2021/10/23 00:12:12;;;;;;;6.47;5.97;;;27.10;99.90;;;;;;5074952;28;20028;-70
2021/10/23 00:14:39;;;;;;;9.95;8.02;;;27.10;99.90;;;;;;5073434;28;20028;-71
2021/10/23 00:17:07;;;;;;;7.72;6.90;;;27.00;99.90;;;;;;5074566;28;20477;-70
2021/10/23 00:19:34;;;;;;;7.47;6.78;;;26.90;99.90;;;;;;5074835;28;20504;-71
2021/10/23 00:22:02;;;;;;;7.13;6.43;;;26.90;99.90;;;;;;5074524;28;20078;-70
2021/10/23 00:24:29;;;;;;;7.45;6.25;;;27.00;99.90;;;;;;5074500;28;20016;-70
2021/10/23 00:26:56;;;;;;;8.60;6.18;;;27.20;99.90;;;;;;5074293;28;20025;-71
2021/10/23 00:29:24;;;;;;;10.88;6.60;;;27.00;99.90;;;;;;5074618;28;20108;-71
2021/10/23 00:31:52;;;;;;;9.45;6.38;;;27.00;99.90;;;;;;5073143;28;20074;-71
2021/10/23 00:34:20;;;;;;;6.47;5.85;;;27.20;99.90;;;;;;5074177;28;20104;-71
2021/10/23 00:36:49;;;;;;;6.82;5.68;;;27.10;99.90;;;;;;5073398;28;20040;-69
2021/10/23 00:39:16;;;;;;;7.43;5.57;;;27.10;99.90;;;;;;5072879;28;20479;-71
2021/10/23 00:41:43;;;;;;;10.05;5.65;;;27.30;99.90;;;;;;5072630;28;20082;-71
2021/10/23 00:44:35;;;;;;;9.07;5.70;;;27.20;99.90;;;;;;5072828;28;20405;-71
2021/10/23 00:47:11;;;;;;;6.53;5.28;;;27.30;99.90;;;;;;5072654;28;20028;-69
2021/10/23 00:49:40;;;;;;;6.22;5.03;;;27.10;99.90;;;;;;5073908;28;20047;-69
2021/10/23 00:52:08;;;;;;;8.57;5.40;;;27.30;99.90;;;;;;5072511;28;20380;-69
2021/10/23 00:54:36;;;;;;;8.52;5.60;;;27.10;99.90;;;;;;5072530;28;20404;-68
2021/10/23 00:57:05;;;;;;;7.97;5.03;;;27.10;99.90;;;;;;5073641;28;20029;-68
2021/10/23 00:59:33;;;;;;;5.78;5.15;;;27.20;99.90;;;;;;5073506;28;20052;-69
2021/10/23 01:02:01;;;;;;;7.10;5.78;;;26.80;99.90;;;;;;5073375;28;20025;-71
2021/10/23 01:04:28;;;;;;;5.85;5.25;;;26.80;99.90;;;;;;5073643;28;20025;-69
2021/10/23 01:06:56;;;;;;;6.30;5.00;;;27.00;99.90;;;;;;5072363;28;20485;-70
2021/10/23 01:09:24;;;;;;;7.65;5.47;;;27.10;99.90;;;;;;5072375;28;20020;-70
2021/10/23 01:11:53;;;;;;;7.50;4.78;;;27.40;99.90;;;;;;5072294;28;20028;-71
2021/10/23 01:14:23;;;;;;;7.43;4.80;;;27.40;99.90;;;;;;5072076;28;20051;-71
2021/10/23 01:16:52;;;;;;;5.97;5.38;;;27.50;99.90;;;;;;5071774;28;20405;-72
2021/10/23 01:19:20;;;;;;;8.25;4.57;;;27.40;99.90;;;;;;5073388;28;20024;-72
2021/10/23 01:21:49;;;;;;;6.03;4.68;;;27.20;99.90;;;;;;5072093;28;20409;-72
2021/10/23 01:24:19;;;;;;;6.22;4.97;;;27.40;99.90;;;;;;5073243;28;20024;-71
2021/10/23 01:26:47;;;;;;;8.60;5.00;;;27.00;99.90;;;;;;5071865;28;20505;-72
2021/10/23 01:29:16;;;;;;;5.55;5.03;;;27.20;99.90;;;;;;5073106;28;20021;-72
2021/10/23 01:31:44;;;;;;;7.40;5.32;;;27.10;99.90;;;;;;5073274;28;20020;-72
2021/10/23 01:34:16;;;;;;;10.05;5.47;;;27.30;99.90;;;;;;5073095;28;20122;-71
2021/10/23 01:36:46;;;;;;;8.02;5.50;;;27.60;99.90;;;;;;5072044;28;20112;-72
2021/10/23 01:39:13;;;;;;;;;;;27.90;99.90;;;;;;5073916;28;20020;-72
2021/10/23 01:41:41;;;;;;;7.13;5.63;;;28.00;99.90;;;;;;5073089;28;19908;-72
2021/10/23 01:44:13;;;;;;;5.55;4.80;;;28.00;99.90;;;;;;5073065;28;20133;-72
2021/10/23 01:46:42;;;;;;;7.65;6.05;;;27.90;99.90;;;;;;5071782;28;20097;-72
2021/10/23 01:49:10;;;;;;;7.07;5.20;;;27.70;99.90;;;;;;5073454;28;20025;-72
2021/10/23 01:51:38;;;;;;;9.35;5.00;;;27.60;99.90;;;;;;5073144;28;20105;-73
2021/10/23 01:54:08;;;;;;;7.97;6.55;;;27.70;99.90;;;;;;5073237;28;20500;-74
2021/10/23 01:56:38;;;;;;;6.47;5.15;;;28.10;99.90;;;;;;5072952;28;20024;-73
2021/10/23 01:59:06;;;;;;;8.27;5.63;;;28.30;99.90;;;;;;5071650;28;20493;-72
2021/10/23 02:01:35;;;;;;;6.55;5.82;;;28.50;99.90;;;;;;5072898;28;20025;-74
2021/10/23 02:04:03;;;;;;;7.23;5.53;;;28.20;99.90;;;;;;5073012;28;20134;-75
2021/10/23 02:06:31;;;;;;;5.72;5.03;;;28.30;99.90;;;;;;5071556;28;20066;-74
2021/10/23 02:08:58;;;;;;;8.00;5.38;;;28.30;99.90;;;;;;5071546;28;20024;-74
2021/10/23 02:11:26;;;;;;;7.75;5.40;;;28.20;99.90;;;;;;5073348;28;20112;-74
2021/10/23 02:13:53;;;;;;;6.47;5.70;;;28.30;99.90;;;;;;5076541;28;20062;-73
2021/10/23 02:16:21;;;;;;;6.20;5.60;;;28.30;99.90;;;;;;5077379;28;20028;-74
2021/10/23 02:18:48;;;;;;;7.53;5.20;;;28.30;99.90;;;;;;5075435;28;20056;-74
2021/10/23 02:21:15;;;;;;;6.22;5.25;;;28.20;99.90;;;;;;5075577;28;20370;-74
2021/10/23 02:23:43;;;;;;;5.93;5.22;;;28.40;99.90;;;;;;5075519;28;20420;-74
2021/10/23 02:26:10;;;;;;;6.60;5.15;;;28.00;99.90;;;;;;5077023;28;20024;-74
2021/10/23 02:28:39;;;;;;;7.05;4.82;;;28.40;99.90;;;;;;5075741;28;20060;-75
2021/10/23 02:31:06;;;;;;;6.10;5.00;;;28.20;99.90;;;;;;5077009;28;20424;-75
2021/10/23 02:33:34;;;;;;;8.07;4.55;;;28.20;99.90;;;;;;5076090;28;20032;-76
2021/10/23 02:36:01;;;;;;;5.72;4.40;;;28.20;99.90;;;;;;5076946;28;20082;-75
2021/10/23 02:38:28;;;;;;;4.70;4.20;;;28.10;99.90;;;;;;5075674;28;20431;-75
2021/10/23 02:40:58;;;;;;;6.97;4.15;;;28.00;99.90;;;;;;5076577;28;20444;-76
2021/10/23 02:43:26;;;;;;;7.25;4.53;;;27.70;99.90;;;;;;5077138;28;20031;-76
2021/10/23 02:45:54;;;;;;;5.47;4.85;;;27.70;99.90;;;;;;5075648;28;20037;-74
2021/10/23 02:48:21;;;;;;;7.60;4.80;;;28.00;99.90;;;;;;5076540;28;20477;-74
2021/10/23 02:50:49;;;;;;;4.78;4.38;;;28.20;99.90;;;;;;5075357;28;20424;-74
2021/10/23 02:53:16;;;;;;;4.68;4.15;;;28.00;99.90;;;;;;5075185;28;20040;-74
2021/10/23 02:55:43;;;;;;;4.97;4.43;;;27.90;99.90;;;;;;5075115;28;20025;-75
2021/10/23 02:58:11;;;;;;;5.20;4.70;;;28.00;99.90;;;;;;5074973;28;20374;-74
2021/10/23 03:00:38;;;;;;;7.95;4.47;;;28.00;99.90;;;;;;5076100;28;20048;-75
2021/10/23 03:03:06;;;;;;;5.03;4.63;;;28.50;99.90;;;;;;5074820;28;20198;-74
2021/10/23 03:05:35;;;;;;;6.72;4.90;;;28.40;99.90;;;;;;5076227;28;20023;-75
2021/10/23 03:08:02;;;;;;;5.97;4.80;;;28.50;99.90;;;;;;5074566;28;20039;-74
2021/10/23 03:10:30;;;;;;;9.10;5.13;;;28.30;99.90;;;;;;5074543;28;20024;-75
2021/10/23 03:12:57;;;;;;;5.82;4.80;;;28.80;99.90;;;;;;5076329;28;20069;-74
2021/10/23 03:15:24;;;;;;;7.72;4.30;;;28.70;99.90;;;;;;5075938;28;20040;-74
2021/10/23 03:17:52;;;;;;;6.18;4.90;;;28.50;99.90;;;;;;5074237;28;20045;-74
2021/10/23 03:20:19;;;;;;;7.90;4.57;;;28.10;99.90;;;;;;5075740;28;20032;-74
2021/10/23 03:22:47;;;;;;;6.93;4.70;;;28.20;99.90;;;;;;5073778;28;20028;-75
2021/10/23 03:25:16;;;;;;;9.00;5.13;;;28.00;99.90;;;;;;5074468;28;20500;-74
2021/10/23 03:27:45;;;;;;;7.28;5.03;;;27.80;99.90;;;;;;5074453;28;20028;-74
2021/10/23 03:30:12;;;;;;;7.03;4.35;;;28.10;99.90;;;;;;5074424;28;20078;-75
2021/10/23 03:32:39;;;;;;;7.30;4.60;;;28.20;99.90;;;;;;5074050;28;20056;-74
2021/10/23 03:35:08;;;;;;;6.18;4.28;;;28.30;99.90;;;;;;5074004;28;20059;-74
2021/10/23 03:37:37;;;;;;;6.93;4.70;;;28.10;99.90;;;;;;5075489;28;20474;-73
2021/10/23 03:40:07;;;;;;;7.03;4.67;;;27.60;99.90;;;;;;5075304;28;20434;-76
2021/10/23 03:42:34;;;;;;;7.53;4.60;;;27.60;99.90;;;;;;5074100;28;20686;-74
2021/10/23 03:45:03;;;;;;;6.35;4.63;;;27.70;99.90;;;;;;5075228;28;20397;-74
2021/10/23 03:47:31;;;;;;;5.68;4.75;;;27.50;99.90;;;;;;5074065;28;20055;-74
2021/10/23 03:49:58;;;;;;;6.55;4.93;;;28.00;99.90;;;;;;5075434;28;20547;-75
2021/10/23 03:52:26;;;;;;;7.80;5.20;;;28.20;99.90;;;;;;5075166;28;20021;-75
2021/10/23 03:54:53;;;;;;;5.82;4.40;;;28.30;99.90;;;;;;5075152;28;20124;-75
2021/10/23 03:57:20;;;;;;;5.25;4.65;;;28.30;99.90;;;;;;5075238;28;20106;-75
2021/10/23 03:59:50;;;;;;;4.60;3.80;;;28.20;99.90;;;;;;5073732;28;20025;-74
2021/10/23 04:02:18;;;;;;;5.45;4.15;;;27.60;99.90;;;;;;5075476;28;20023;-74
2021/10/23 04:04:45;;;;;;;6.32;4.43;;;27.60;99.90;;;;;;5073759;28;20082;-75
2021/10/23 04:07:12;;;;;;;4.97;4.28;;;27.40;99.90;;;;;;5075123;28;20507;-75
2021/10/23 04:09:40;;;;;;;4.60;4.20;;;27.40;99.90;;;;;;5075051;28;20095;-75
2021/10/23 04:12:07;;;;;;;5.72;4.25;;;27.70;99.90;;;;;;5057245;28;20032;-75
2021/10/23 04:14:35;;;;;;;6.32;4.30;;;27.40;99.90;;;;;;5073447;28;20028;-74
2021/10/23 04:17:02;;;;;;;6.50;4.13;;;27.20;99.90;;;;;;5073210;28;20405;-74
2021/10/23 04:19:30;;;;;;;5.95;4.22;;;27.70;99.90;;;;;;5073640;28;20035;-74
2021/10/23 04:21:58;;;;;;;5.68;4.00;;;27.50;99.90;;;;;;5073310;28;20025;-74
2021/10/23 04:24:26;;;;;;;6.20;4.30;;;27.60;99.90;;;;;;5073328;28;20025;-74
2021/10/23 04:26:53;;;;;;;5.90;3.97;;;27.70;99.90;;;;;;5073359;28;20024;-73
2021/10/23 04:29:21;;;;;;;5.10;4.20;;;27.90;99.90;;;;;;5074502;28;20020;-74
2021/10/23 04:31:49;;;;;;;5.13;4.22;;;27.40;99.90;;;;;;5073141;28;20022;-74
2021/10/23 04:34:17;;;;;;;5.85;4.35;;;27.20;99.90;;;;;;5072854;28;20104;-74
2021/10/23 04:36:44;;;;;;;4.72;4.05;;;27.40;99.90;;;;;;5073473;28;20090;-73
2021/10/23 04:39:13;;;;;;;4.63;3.97;;;27.60;99.90;;;;;;5073209;28;20416;-73
2021/10/23 04:41:40;;;;;;;5.63;4.20;;;27.70;99.90;;;;;;5073968;28;20416;-74
2021/10/23 04:44:07;;;;;;;4.82;4.32;;;27.70;99.90;;;;;;5072689;28;20056;-74
2021/10/23 04:46:35;;;;;;;7.93;4.30;;;27.20;99.90;;;;;;5072633;28;20020;-73
2021/10/23 04:49:02;;;;;;;5.20;4.28;;;26.50;99.90;;;;;;5074029;28;20543;-74
2021/10/23 04:51:29;;;;;;;4.50;4.10;;;26.40;99.90;;;;;;5073867;28;20025;-73
2021/10/23 04:53:57;;;;;;;5.47;4.28;;;27.00;99.90;;;;;;5072551;28;20485;-73
2021/10/23 04:56:24;;;;;;;4.03;3.72;;;27.40;99.90;;;;;;5073762;28;20032;-73
2021/10/23 04:58:54;;;;;;;4.97;4.03;;;27.60;99.90;;;;;;5073872;28;20027;-72
2021/10/23 05:01:22;;;;;;;5.68;4.00;;;27.80;99.90;;;;;;5072317;28;20036;-73
2021/10/23 05:03:50;;;;;;;4.80;4.40;;;27.50;99.90;;;;;;5073514;28;20017;-72
2021/10/23 05:06:17;;;;;;;6.50;4.20;;;27.50;99.90;;;;;;5072261;28;20071;-71
2021/10/23 05:08:45;;;;;;;6.15;3.90;;;27.50;99.90;;;;;;5072348;28;20025;-71
2021/10/23 05:11:12;;;;;;;7.50;4.00;;;27.10;99.90;;;;;;5073563;28;20025;-70
2021/10/23 05:13:40;;;;;;;5.18;4.13;;;26.70;99.90;;;;;;5073468;28;20074;-72
2021/10/23 05:16:07;;;;;;;6.00;4.30;;;26.50;99.90;;;;;;5073350;28;20027;-73
2021/10/23 05:18:35;;;;;;;5.43;4.82;;;26.40;99.90;;;;;;5073205;28;20525;-72
2021/10/23 05:21:02;;;;;;;6.35;4.45;;;26.50;99.90;;;;;;5071923;28;20119;-74
2021/10/23 05:23:29;;;;;;;6.75;4.30;;;26.50;99.90;;;;;;5073567;28;20020;-75
2021/10/23 05:26:01;;;;;;;6.57;4.38;;;26.40;99.90;;;;;;5071993;28;20166;-73
2021/10/23 05:28:28;;;;;;;4.78;4.25;;;26.50;99.90;;;;;;5073534;28;20021;-72
2021/10/23 05:30:59;;;;;;;6.88;4.00;;;26.50;99.90;;;;;;5073185;28;20075;-72
2021/10/23 05:33:26;;;;;;;4.40;4.00;;;26.50;99.90;;;;;;5073216;28;20108;-72
2021/10/23 05:35:54;;;;;;;4.45;3.80;;;26.50;99.90;;;;;;5073098;28;20027;-72
2021/10/23 05:38:21;;;;;;;4.57;4.13;;;26.50;99.90;;;;;;5071710;28;20059;-71
2021/10/23 05:40:48;;;;;;;5.05;3.80;;;26.60;99.90;;;;;;5073009;28;20024;-71
2021/10/23 05:43:16;;;;;;;5.03;3.90;;;26.50;99.90;;;;;;5073205;28;20020;-71
2021/10/23 05:45:43;;;;;;;6.22;4.40;;;26.70;99.90;;;;;;5072925;28;20012;-71
2021/10/23 05:48:11;;;;;;;4.35;3.95;;;27.00;99.90;;;;;;5072880;28;20021;-71
2021/10/23 05:50:38;;;;;;;4.60;4.20;;;27.00;99.90;;;;;;5072928;28;20500;-72
2021/10/23 05:53:05;;;;;;;5.03;4.43;;;27.10;99.90;;;;;;5072910;28;20422;-70
2021/10/23 05:55:33;;;;;;;4.90;4.50;;;27.10;99.90;;;;;;5071559;28;20393;-71
2021/10/23 05:58:02;;;;;;;5.30;4.78;;;27.20;99.90;;;;;;5071646;28;20107;-72
2021/10/23 06:00:30;;;;;;;4.90;4.28;;;26.80;99.90;;;;;;5072870;28;20017;-71
2021/10/23 06:03:00;;;;;;;4.75;4.35;;;26.80;99.90;;;;;;5072878;28;20029;-72
2021/10/23 06:05:27;;;;;;;;;;;26.90;99.90;;;;;;5072220;28;20024;-70
2021/10/23 06:07:55;;;;;;;4.75;3.90;;;26.60;99.90;;;;;;5071555;28;19904;-72
2021/10/23 06:10:23;;;;;;;4.45;4.05;;;26.20;99.90;;;;;;5072944;28;20025;-73
2021/10/23 06:12:51;;;;;;;4.30;4.00;;;26.40;99.90;;;;;;5072841;28;20028;-71
2021/10/23 06:15:19;;;;;;;5.15;4.20;;;26.30;99.90;;;;;;5072771;28;20021;-72
2021/10/23 06:17:46;;;;;;;4.63;4.05;;;26.30;99.90;;;;;;5072612;28;20086;-72
2021/10/23 06:20:14;;;;;;;4.43;3.95;;;26.20;99.90;;;;;;5071223;28;20088;-72
2021/10/23 06:22:50;;;;;;;;;;;26.30;99.90;;;;;;5072977;28;20064;-73
2021/10/23 06:25:19;;;;;;;6.05;4.28;;;26.60;99.90;;;;;;5072771;28;19904;-73
2021/10/23 06:27:47;;;;;;;4.43;4.03;;;26.70;99.90;;;;;;5072695;28;20029;-72
2021/10/23 06:30:15;;;;;;;4.47;4.10;;;26.50;99.90;;;;;;5071405;28;20028;-72
2021/10/23 06:32:50;;;;;;;4.90;4.40;;;26.30;99.90;;;;;;5072664;28;20075;-73
2021/10/23 06:35:20;;;;;;;5.13;4.22;;;26.50;99.90;;;;;;5071344;28;20443;-73
2021/10/23 06:37:47;;;;;;;5.63;4.50;;;26.60;99.90;;;;;;5071158;28;20035;-72
2021/10/23 06:40:15;;;;;;;4.97;4.50;;;26.80;99.90;;;;;;5071247;28;20440;-72
2021/10/23 06:42:44;;;;;;;6.57;3.95;;;27.10;99.90;;;;;;5072644;28;20104;-73
2021/10/23 06:45:16;;;;;;;4.80;4.00;;;27.10;99.90;;;;;;5071283;28;20024;-74
2021/10/23 06:47:43;;;;;;;5.78;4.40;;;27.10;99.90;;;;;;5072651;28;20043;-74
2021/10/23 06:50:12;;;;;;;5.43;3.97;;;27.00;99.90;;;;;;5072999;28;20496;-73
2021/10/23 06:52:40;;;;;;;5.93;4.80;;;26.70;99.90;;;;;;5071315;28;20025;-74
2021/10/23 06:55:09;;;;;;;5.55;4.07;;;26.10;99.90;;;;;;5071276;28;20025;-74
2021/10/23 06:57:38;;;;;;;4.78;4.10;;;25.80;99.90;;;;;;5072887;28;20032;-73
2021/10/23 07:00:08;;;;;;;6.60;4.50;;;25.90;99.90;;;;;;5076053;28;20032;-74
2021/10/23 07:02:41;;;;;;;;;;;26.00;99.90;;;;;;5076851;28;20446;-72
2021/10/23 07:05:16;;;;;;;5.40;4.53;;;26.00;99.90;;;;;;5076057;28;19904;-71
2021/10/23 07:07:44;;;;;;;5.32;4.35;;;25.70;99.90;;;;;;5076109;28;20025;-72
2021/10/23 07:10:11;;;;;;;5.57;4.60;;;25.20;99.90;;;;;;5074860;28;20588;-72
2021/10/23 07:12:39;;;;;;;5.57;4.50;;;24.70;99.90;;;;;;5075973;28;20481;-73
2021/10/23 07:15:07;;;;;;;5.40;4.80;;;24.50;99.90;;;;;;5076006;28;20058;-72
2021/10/23 07:17:35;;;;;;;5.90;4.50;;;24.30;99.90;;;;;;5075266;28;20562;-72
2021/10/23 07:20:03;;;;;;;6.25;4.90;;;24.10;99.90;;;;;;5075982;28;20541;-72
2021/10/23 07:22:30;;;;;;;8.30;5.25;;;23.80;99.90;;;;;;5075733;28;20059;-72
2021/10/23 07:24:59;;;;;;;6.13;5.10;;;23.70;99.90;;;;;;5074651;28;20027;-72
2021/10/23 07:27:26;;;;;;;6.60;5.15;;;23.60;99.90;;;;;;5075630;28;20021;-73
2021/10/23 07:29:54;;;;;;;6.20;5.70;;;23.50;99.90;;;;;;5075662;28;20013;-72
2021/10/23 07:32:21;;;;;;;7.57;6.15;;;23.30;99.90;;;;;;5074458;28;20397;-72
2021/10/23 07:34:48;;;;;;;6.65;6.05;;;23.20;99.90;;;;;;5075554;28;20436;-72
2021/10/23 07:37:16;;;;;;;8.57;6.53;;;23.30;99.90;;;;;;5074242;28;20433;-71
2021/10/23 07:39:46;;;;;;;8.25;7.43;;;23.20;99.90;;;;;;5074323;28;20029;-72
2021/10/23 07:42:13;;;;;;;6.88;6.20;;;23.10;99.90;;;;;;5074130;28;20119;-72
2021/10/23 07:44:42;;;;;;;7.97;7.22;;;23.00;99.90;;;;;;5075398;28;20035;-71
2021/10/23 07:47:10;;;;;;;7.35;6.75;;;22.90;99.90;;;;;;5075325;28;20363;-72
2021/10/23 07:49:37;;;;;;;8.40;7.70;;;22.80;99.90;;;;;;5075463;28;20021;-72
2021/10/23 07:52:05;;;;;;;9.48;7.45;;;22.70;99.90;;;;;;5074023;28;20401;-72
2021/10/23 07:54:32;;;;;;;10.60;9.18;;;22.70;99.90;;;;;;5075232;28;20619;-72
2021/10/23 07:57:00;;;;;;;9.13;7.60;;;22.60;99.90;;;;;;5075141;28;20093;-71
2021/10/23 07:59:27;;;;;;;15.57;10.63;;;22.60;99.90;;;;;;5075068;28;20028;-72
2021/10/23 08:02:08;;;;;;;15.57;12.05;;;22.40;99.90;;;;;;5075037;28;20544;-72
2021/10/23 08:04:34;;;;;;;;;;;22.50;99.90;;;;;;5075377;28;20016;-72
2021/10/23 08:07:03;;;;;;;11.07;9.13;;;22.40;99.90;;;;;;5073742;28;19911;-73
2021/10/23 08:09:32;;;;;;;9.43;8.52;;;22.40;99.90;;;;;;5074042;28;20048;-72
2021/10/23 08:12:00;;;;;;;9.20;8.50;;;22.40;99.90;;;;;;5074769;28;20029;-72
2021/10/23 08:14:28;;;;;;;9.20;8.40;;;22.30;99.90;;;;;;5074853;28;20031;-71
2021/10/23 08:16:57;;;;;;;10.35;9.30;;;22.30;99.90;;;;;;5074867;28;20066;-72
2021/10/23 08:19:24;;;;;;;10.40;9.50;;;22.20;99.90;;;;;;5074875;28;20028;-71
2021/10/23 08:21:52;;;;;;;12.23;11.30;;;22.20;99.90;;;;;;5073254;28;20031;-72
2021/10/23 08:24:19;;;;;;;12.85;11.55;;;22.20;99.90;;;;;;5074802;28;20082;-73
2021/10/23 08:26:47;;;;;;;11.07;10.13;;;22.20;99.90;;;;;;5074633;28;20024;-72
2021/10/23 08:29:15;;;;;;;14.18;10.23;;;22.20;99.90;;;;;;5074588;28;20044;-73
2021/10/23 08:31:46;;;;;;;12.13;10.27;;;22.20;99.90;;;;;;5056800;28;20024;-72
2021/10/23 08:34:14;;;;;;;10.60;9.70;;;22.30;99.90;;;;;;5074443;28;20075;-73
2021/10/23 08:36:41;;;;;;;9.98;9.32;;;22.40;99.90;;;;;;5074580;28;20115;-74
2021/10/23 08:39:09;;;;;;;9.88;9.00;;;22.40;99.90;;;;;;5073151;28;20119;-73
2021/10/23 08:41:36;;;;;;;9.50;8.57;;;22.50;99.90;;;;;;5072884;28;20464;-71
2021/10/23 08:44:07;;;;;;;9.43;8.48;;;22.50;99.90;;;;;;5072912;28;20028;-71
2021/10/23 08:46:40;;;;;;;12.18;10.98;;;22.50;99.90;;;;;;5074407;28;20032;-72
2021/10/23 08:49:09;;;;;;;11.30;9.93;;;22.50;99.90;;;;;;5072842;28;20024;-73
2021/10/23 08:51:36;;;;;;;10.57;9.60;;;22.50;99.90;;;;;;5074150;28;20107;-73
2021/10/23 08:54:04;;;;;;;9.85;8.85;;;22.50;99.90;;;;;;5074052;28;20107;-72
2021/10/23 08:56:31;;;;;;;10.90;9.93;;;22.50;99.90;;;;;;5072696;28;20074;-72
2021/10/23 08:59:00;;;;;;;12.13;10.95;;;22.50;99.90;;;;;;5073921;28;20393;-72
2021/10/23 09:01:28;;;;;;;11.60;10.43;;;22.40;99.90;;;;;;5073935;28;20074;-71
2021/10/23 09:03:56;;;;;;;13.48;11.05;;;22.40;99.90;;;;;;5073798;28;20012;-73
2021/10/23 09:06:35;;;;;;;21.85;14.93;;;22.30;99.90;;;;;;5072588;28;20025;-73
2021/10/23 09:09:10;;;;;;;19.80;16.10;;;22.10;99.90;;;;;;5074228;28;20031;-73
2021/10/23 09:11:38;;;;;;;21.02;15.38;;;21.80;99.90;;;;;;5074003;28;20056;-73
2021/10/23 09:14:28;;;;;;;18.48;15.93;;;21.60;99.90;;;;;;5072627;28;20024;-73
2021/10/23 09:17:17;;;;;;;19.17;16.70;;;21.50;99.90;;;;;;5073797;28;20071;-73
2021/10/23 09:19:51;;;;;;;18.48;16.98;;;21.40;99.90;;;;;;5073776;28;20017;-73
2021/10/23 09:22:38;;;;;;;18.30;16.50;;;21.20;99.90;;;;;;5073453;28;20055;-73
2021/10/23 09:25:35;;;;;;;19.60;17.83;;;21.20;99.90;;;;;;5072551;28;20032;-73
2021/10/23 09:28:03;;;;;;;19.05;17.17;;;21.10;99.90;;;;;;5073752;28;20048;-73
2021/10/23 09:30:37;;;;;;;19.33;17.67;;;20.90;99.90;;;;;;5073535;28;20012;-74
2021/10/23 09:33:14;;;;;;;19.65;17.80;;;21.00;99.90;;;;;;5072327;28;20098;-74
2021/10/23 09:35:49;;;;;;;19.95;18.23;;;20.90;99.90;;;;;;5073529;28;20031;-72
2021/10/23 09:38:20;;;;;;;19.98;18.20;;;20.90;99.90;;;;;;5072115;28;20097;-73
2021/10/23 09:40:51;;;;;;;19.75;17.75;;;20.90;99.90;;;;;;5073307;28;20016;-73
2021/10/23 09:43:21;;;;;;;19.80;18.35;;;20.90;99.90;;;;;;5073356;28;20025;-72
2021/10/23 09:45:57;;;;;;;20.08;18.13;;;20.90;99.90;;;;;;5073367;28;20048;-72
2021/10/23 09:48:46;;;;;;;21.30;18.60;;;20.90;99.90;;;;;;5073307;28;20470;-72
2021/10/23 09:51:29;;;;;;;20.17;18.50;;;20.90;99.90;;;;;;5055514;28;20028;-72
2021/10/23 09:54:02;;;;;;;20.95;19.08;;;20.90;99.90;;;;;;5071933;28;20427;-72
2021/10/23 09:56:37;;;;;;;21.52;19.52;;;20.80;99.90;;;;;;5073028;28;20365;-72
2021/10/23 09:59:07;;;;;;;23.83;20.80;;;20.90;99.90;;;;;;5071790;28;20028;-72
2021/10/23 10:01:40;;;;;;;23.48;21.30;;;20.80;99.90;;;;;;5073061;28;20073;-72
2021/10/23 10:04:16;;;;;;;23.00;20.48;;;20.80;99.90;;;;;;5071773;28;20486;-71
2021/10/23 10:06:50;;;;;;;22.00;20.10;;;20.80;99.90;;;;;;5072036;28;20031;-72
2021/10/23 10:09:19;;;;;;;21.88;20.15;;;20.70;99.90;;;;;;5072914;28;20019;-72
2021/10/23 10:11:50;;;;;;;22.27;20.05;;;20.80;99.90;;;;;;5071656;28;20519;-71
2021/10/23 10:14:27;;;;;;;22.42;20.15;;;20.80;99.90;;;;;;5073154;28;20024;-71
2021/10/23 10:16:57;;;;;;;22.95;20.67;;;20.80;99.90;;;;;;5071560;28;20048;-72
2021/10/23 10:19:24;;;;;;;22.58;20.60;;;20.80;99.90;;;;;;5073023;28;20028;-72
2021/10/23 10:21:53;;;;;;;22.95;20.75;;;20.80;99.90;;;;;;5072814;28;20361;-72
2021/10/23 10:24:28;;;;;;;23.58;21.27;;;20.70;99.90;;;;;;5072960;28;20016;-72
2021/10/23 10:27:07;;;;;;;23.35;21.08;;;20.80;99.90;;;;;;5071702;28;20028;-72
2021/10/23 10:29:42;;;;;;;26.10;22.08;;;20.80;99.90;;;;;;5072948;28;20454;-72
2021/10/23 10:34:58;;;;;;;22.60;20.33;;;20.80;99.90;;;;;;5076168;28;20021;-73
2021/10/23 10:43:05;;;;;;;25.55;22.92;;;20.60;99.90;;;;;;5076384;28;20477;-71
2021/10/23 10:45:38;;;;;;;25.75;23.20;;;20.60;99.90;;;;;;5076453;28;20023;-71
2021/10/23 10:48:16;;;;;;;25.90;23.60;;;20.60;99.90;;;;;;5074849;28;20112;-72
2021/10/23 10:50:49;;;;;;;26.30;23.65;;;20.70;99.90;;;;;;5075138;28;20028;-72
2021/10/23 10:53:33;;;;;;;25.48;23.33;;;20.60;99.90;;;;;;5074906;28;20028;-72
2021/10/23 10:56:03;;;;;;;25.15;22.95;;;20.70;99.90;;;;;;5076391;28;20017;-73
2021/10/23 10:58:55;;;;;;;24.33;22.27;;;20.70;99.90;;;;;;5076096;28;20082;-73
2021/10/23 11:01:26;;;;;;;25.08;23.02;;;20.70;99.90;;;;;;5076057;28;20481;-72
2021/10/23 11:03:56;;;;;;;25.98;23.48;;;20.70;99.90;;;;;;5075984;28;20036;-72
2021/10/23 11:06:30;;;;;;;26.92;23.98;;;20.80;99.90;;;;;;5076055;28;20091;-71
2021/10/23 11:11:49;;;;;;;28.13;25.00;;;20.80;99.90;;;;;;5076163;28;20032;-72
2021/10/23 11:16:55;;;;;;;26.73;24.00;;;20.80;99.90;;;;;;5075861;28;20079;-72
2021/10/23 11:19:34;;;;;;;29.17;26.20;;;20.80;99.90;;;;;;5076021;28;20030;-72
2021/10/23 11:22:06;;;;;;;29.55;26.42;;;20.70;99.90;;;;;;5074619;28;20060;-72
2021/10/23 11:25:06;;;;;;;29.58;26.60;;;20.70;99.90;;;;;;5074842;28;20471;-72
2021/10/23 11:27:45;;;;;;;28.30;25.90;;;20.70;99.90;;;;;;5071662;28;20044;-72
2021/10/23 11:30:31;;;;;;;28.55;26.17;;;20.70;99.90;;;;;;5075562;28;20032;-72
2021/10/23 11:33:04;;;;;;;26.08;23.98;;;20.70;99.90;;;;;;5074598;28;20491;-73
2021/10/23 11:35:38;;;;;;;27.70;25.15;;;20.70;99.90;;;;;;5074406;28;20021;-73
2021/10/23 11:38:11;;;;;;;28.17;25.75;;;20.70;99.90;;;;;;5075400;28;20021;-73
2021/10/23 11:40:40;;;;;;;31.73;26.67;;;20.70;99.90;;;;;;5075513;28;20031;-70
2021/10/23 11:43:10;;;;;;;29.05;26.23;;;20.70;99.90;;;;;;5075220;28;20028;-72
2021/10/23 11:45:37;;;;;;;;;;;20.70;99.90;;;;;;5074161;28;20055;-72
2021/10/23 11:48:07;;;;;;;27.10;24.80;;;20.70;99.90;;;;;;5075291;28;19904;-72
2021/10/23 11:50:37;;;;;;;26.25;24.17;;;20.60;99.90;;;;;;5075519;28;20369;-73
2021/10/23 11:53:22;;;;;;;25.85;23.75;;;20.60;99.90;;;;;;5074014;28;20060;-72
2021/10/23 11:55:55;;;;;;;27.25;24.80;;;20.50;99.90;;;;;;5075086;28;20024;-72
2021/10/23 11:58:37;;;;;;;25.52;23.38;;;20.40;99.90;;;;;;5075156;28;20105;-73
2021/10/23 12:01:19;;;;;;;25.15;23.38;;;20.40;99.90;;;;;;5073775;28;20020;-71
2021/10/23 12:03:52;;;;;;;24.55;22.90;;;20.30;99.90;;;;;;5073682;28;20366;-71
2021/10/23 12:06:23;;;;;;;24.90;22.98;;;20.20;99.90;;;;;;5075049;28;20125;-71
2021/10/23 12:08:56;;;;;;;23.50;22.15;;;20.10;99.90;;;;;;5074933;28;20061;-72
2021/10/23 12:11:29;;;;;;;24.08;22.48;;;20.00;99.90;;;;;;5073613;28;20028;-72
2021/10/23 12:14:14;;;;;;;24.42;22.88;;;20.00;99.90;;;;;;5075272;28;20542;-72
2021/10/23 12:16:43;;;;;;;23.70;22.08;;;20.00;99.90;;;;;;5073283;28;20033;-71
2021/10/23 12:19:13;;;;;;;22.85;21.35;;;20.00;99.90;;;;;;5073418;28;20025;-72
2021/10/23 12:21:47;;;;;;;22.10;20.85;;;19.90;99.90;;;;;;5073251;28;20031;-72
2021/10/23 12:24:18;;;;;;;22.65;21.00;;;19.90;99.90;;;;;;5073408;28;20020;-72
2021/10/23 12:27:08;;;;;;;23.10;21.65;;;19.90;99.90;;;;;;5073342;28;20017;-72
2021/10/23 12:29:47;;;;;;;21.58;20.25;;;19.80;99.90;;;;;;5074644;28;20128;-71
2021/10/23 12:32:17;;;;;;;21.40;19.95;;;19.70;99.90;;;;;;5074492;28;20107;-72
2021/10/23 12:34:51;;;;;;;21.17;19.77;;;19.70;99.90;;;;;;5074463;28;20089;-72
2021/10/23 12:37:27;;;;;;;22.25;20.85;;;19.70;99.90;;;;;;5074357;28;20044;-72
2021/10/23 12:40:22;;;;;;;21.80;20.40;;;19.70;99.90;;;;;;5074320;28;20025;-72
2021/10/23 12:43:10;;;;;;;22.27;20.67;;;19.70;99.90;;;;;;5074168;28;20032;-71
2021/10/23 12:45:40;;;;;;;21.17;20.00;;;19.70;99.90;;;;;;5074133;28;20052;-70
2021/10/23 12:48:14;;;;;;;21.05;19.63;;;19.60;99.90;;;;;;5074190;28;20547;-71
2021/10/23 12:50:43;;;;;;;21.23;19.73;;;19.60;99.90;;;;;;5074178;28;20024;-73
2021/10/23 12:53:11;;;;;;;21.38;20.05;;;19.60;99.90;;;;;;5072732;28;20024;-72
2021/10/23 12:55:39;;;;;;;20.92;19.80;;;19.60;99.90;;;;;;5073565;28;20019;-72
2021/10/23 12:58:06;;;;;;;21.15;19.83;;;19.50;99.90;;;;;;5072473;28;20030;-72
2021/10/23 13:00:36;;;;;;;21.10;19.60;;;19.50;99.90;;;;;;5072606;28;20466;-71
2021/10/23 13:03:04;;;;;;;21.00;19.63;;;19.50;99.90;;;;;;5072469;28;20070;-72
2021/10/23 13:05:31;;;;;;;21.17;19.95;;;19.50;99.90;;;;;;5073793;28;20477;-72
2021/10/23 13:07:58;;;;;;;21.45;20.08;;;19.40;99.90;;;;;;5073831;28;20465;-72
2021/10/23 13:10:26;;;;;;;20.88;19.50;;;19.40;99.90;;;;;;5072402;28;20157;-72